sensor_id;sensor_type;location;lat;lon;timestamp;temperature;humidity
8539;DHT22;4307;53.868;11.680;2022-12-10T00:01:03;0.60;99.90
8539;DHT22;4307;53.868;11.680;2022-12-10T00:03:30;0.60;99.90
8539;DHT22;4307;53.868;11.680;2022-12-10T00:06:01;0.60;99.90
8539;DHT22;4307;53.868;11.680;2022-12-10T00:08:27;0.60;99.90
8539;DHT22;4307;53.868;11.680;2022-12-10T00:10:54;0.60;99.90
8539;DHT22;4307;53.868;11.680;2022-12-10T00:13:21;0.60;99.90
8539;DHT22;4307;53.868;11.680;2022-12-10T00:15:48;0.60;99.90
8539;DHT22;4307;53.868;11.680;2022-12-10T00:18:14;0.70;99.90
8539;DHT22;4307;53.868;11.680;2022-12-10T00:20:41;0.70;99.90
8539;DHT22;4307;53.868;11.680;2022-12-10T00:23:09;0.70;99.90
8539;DHT22;4307;53.868;11.680;2022-12-10T00:25:35;0.70;99.90
8539;DHT22;4307;53.868;11.680;2022-12-10T00:28:02;0.70;99.90
8539;DHT22;4307;53.868;11.680;2022-12-10T00:30:29;0.70;99.90
8539;DHT22;4307;53.868;11.680;2022-12-10T00:32:55;0.60;99.90
8539;DHT22;4307;53.868;11.680;2022-12-10T00:35:22;0.60;99.90
8539;DHT22;4307;53.868;11.680;2022-12-10T00:37:49;0.50;99.90
8539;DHT22;4307;53.868;11.680;2022-12-10T00:40:17;0.50;99.90
8539;DHT22;4307;53.868;11.680;2022-12-10T00:42:44;0.50;99.90
8539;DHT22;4307;53.868;11.680;2022-12-10T00:45:10;0.50;99.90
8539;DHT22;4307;53.868;11.680;2022-12-10T00:47:37;0.60;99.90
8539;DHT22;4307;53.868;11.680;2022-12-10T00:50:04;0.60;99.90
8539;DHT22;4307;53.868;11.680;2022-12-10T00:52:31;0.60;99.90
8539;DHT22;4307;53.868;11.680;2022-12-10T00:54:57;0.60;99.90
8539;DHT22;4307;53.868;11.680;2022-12-10T00:57:25;0.60;99.90
8539;DHT22;4307;53.868;11.680;2022-12-10T00:59:52;0.60;99.90
8539;DHT22;4307;53.868;11.680;2022-12-10T01:02:19;0.60;99.90
8539;DHT22;4307;53.868;11.680;2022-12-10T01:04:46;0.70;99.90
8539;DHT22;4307;53.868;11.680;2022-12-10T01:07:13;0.70;99.90
8539;DHT22;4307;53.868;11.680;2022-12-10T01:09:40;0.70;99.90
8539;DHT22;4307;53.868;11.680;2022-12-10T01:12:06;0.80;99.90
8539;DHT22;4307;53.868;11.680;2022-12-10T01:14:34;0.80;99.90
8539;DHT22;4307;53.868;11.680;2022-12-10T01:17:04;0.80;99.90
8539;DHT22;4307;53.868;11.680;2022-12-10T01:19:32;0.80;99.90
8539;DHT22;4307;53.868;11.680;2022-12-10T01:21:59;0.80;99.90
8539;DHT22;4307;53.868;11.680;2022-12-10T01:24:27;0.80;99.90
8539;DHT22;4307;53.868;11.680;2022-12-10T01:26:54;0.80;99.90
8539;DHT22;4307;53.868;11.680;2022-12-10T01:29:22;0.80;99.90
8539;DHT22;4307;53.868;11.680;2022-12-10T01:31:52;0.80;99.90
8539;DHT22;4307;53.868;11.680;2022-12-10T01:34:19;0.80;99.90
8539;DHT22;4307;53.868;11.680;2022-12-10T01:36:51;0.80;99.90
8539;DHT22;4307;53.868;11.680;2022-12-10T01:39:20;0.90;99.90
8539;DHT22;4307;53.868;11.680;2022-12-10T01:41:50;0.90;99.90
8539;DHT22;4307;53.868;11.680;2022-12-10T01:47:23;0.90;99.90
8539;DHT22;4307;53.868;11.680;2022-12-10T01:49:49;0.90;99.90
8539;DHT22;4307;53.868;11.680;2022-12-10T01:52:16;0.80;99.90
8539;DHT22;4307;53.868;11.680;2022-12-10T01:54:45;0.90;99.90
8539;DHT22;4307;53.868;11.680;2022-12-10T01:57:15;0.80;99.90
8539;DHT22;4307;53.868;11.680;2022-12-10T01:59:44;0.80;99.90
8539;DHT22;4307;53.868;11.680;2022-12-10T02:02:16;0.70;99.90
8539;DHT22;4307;53.868;11.680;2022-12-10T02:05:01;0.70;99.90
8539;DHT22;4307;53.868;11.680;2022-12-10T02:07:38;0.60;99.90
8539;DHT22;4307;53.868;11.680;2022-12-10T02:10:12;0.60;99.90
8539;DHT22;4307;53.868;11.680;2022-12-10T02:12:46;0.50;99.90
8539;DHT22;4307;53.868;11.680;2022-12-10T02:15:16;0.50;99.90
8539;DHT22;4307;53.868;11.680;2022-12-10T02:17:46;0.50;99.90
8539;DHT22;4307;53.868;11.680;2022-12-10T02:20:18;0.40;99.90
8539;DHT22;4307;53.868;11.680;2022-12-10T02:22:49;0.30;99.90
8539;DHT22;4307;53.868;11.680;2022-12-10T02:25:20;0.40;99.90
8539;DHT22;4307;53.868;11.680;2022-12-10T02:27:53;0.40;99.90
8539;DHT22;4307;53.868;11.680;2022-12-10T02:30:23;0.40;99.90
8539;DHT22;4307;53.868;11.680;2022-12-10T02:32:50;0.40;99.90
8539;DHT22;4307;53.868;11.680;2022-12-10T02:35:20;0.30;99.90
8539;DHT22;4307;53.868;11.680;2022-12-10T02:37:51;0.30;99.90
8539;DHT22;4307;53.868;11.680;2022-12-10T02:40:24;0.30;99.90
8539;DHT22;4307;53.868;11.680;2022-12-10T02:42:52;0.30;99.90
8539;DHT22;4307;53.868;11.680;2022-12-10T02:45:23;0.20;99.90
8539;DHT22;4307;53.868;11.680;2022-12-10T02:47:54;0.30;99.90
8539;DHT22;4307;53.868;11.680;2022-12-10T02:50:22;0.30;99.90
8539;DHT22;4307;53.868;11.680;2022-12-10T02:52:49;0.30;99.90
8539;DHT22;4307;53.868;11.680;2022-12-10T02:55:17;0.40;99.90
8539;DHT22;4307;53.868;11.680;2022-12-10T02:57:56;0.40;99.90
8539;DHT22;4307;53.868;11.680;2022-12-10T03:00:27;0.40;99.90
8539;DHT22;4307;53.868;11.680;2022-12-10T03:03:09;0.30;99.90
8539;DHT22;4307;53.868;11.680;2022-12-10T03:05:42;0.30;99.90
8539;DHT22;4307;53.868;11.680;2022-12-10T03:08:14;0.20;99.90
8539;DHT22;4307;53.868;11.680;2022-12-10T03:10:50;0.20;99.90
8539;DHT22;4307;53.868;11.680;2022-12-10T03:13:21;0.20;99.90
8539;DHT22;4307;53.868;11.680;2022-12-10T03:15:53;0.20;99.90
8539;DHT22;4307;53.868;11.680;2022-12-10T03:18:22;0.20;99.90
8539;DHT22;4307;53.868;11.680;2022-12-10T03:20:51;0.20;99.90
8539;DHT22;4307;53.868;11.680;2022-12-10T03:23:19;0.10;99.90
8539;DHT22;4307;53.868;11.680;2022-12-10T03:25:48;0.20;99.90
8539;DHT22;4307;53.868;11.680;2022-12-10T03:28:16;0.10;99.90
8539;DHT22;4307;53.868;11.680;2022-12-10T03:30:45;0.00;99.90
8539;DHT22;4307;53.868;11.680;2022-12-10T03:33:15;0.10;99.90
8539;DHT22;4307;53.868;11.680;2022-12-10T03:35:42;0.00;99.90
8539;DHT22;4307;53.868;11.680;2022-12-10T03:38:10;0.10;99.90
8539;DHT22;4307;53.868;11.680;2022-12-10T03:40:36;0.00;99.90
8539;DHT22;4307;53.868;11.680;2022-12-10T03:43:03;0.00;99.90
8539;DHT22;4307;53.868;11.680;2022-12-10T03:45:30;0.00;99.90
8539;DHT22;4307;53.868;11.680;2022-12-10T03:47:56;0.00;99.90
8539;DHT22;4307;53.868;11.680;2022-12-10T03:50:24;-0.10;99.90
8539;DHT22;4307;53.868;11.680;2022-12-10T03:52:51;-0.10;99.90
8539;DHT22;4307;53.868;11.680;2022-12-10T03:55:18;-0.10;99.90
8539;DHT22;4307;53.868;11.680;2022-12-10T03:57:44;-0.10;99.90
8539;DHT22;4307;53.868;11.680;2022-12-10T04:00:12;-0.10;99.90
8539;DHT22;4307;53.868;11.680;2022-12-10T04:02:38;-0.10;99.90
8539;DHT22;4307;53.868;11.680;2022-12-10T04:05:06;0.00;99.90
8539;DHT22;4307;53.868;11.680;2022-12-10T04:07:34;0.00;99.90
8539;DHT22;4307;53.868;11.680;2022-12-10T04:10:01;0.10;99.90
8539;DHT22;4307;53.868;11.680;2022-12-10T04:12:28;0.20;99.90
8539;DHT22;4307;53.868;11.680;2022-12-10T04:14:55;0.20;99.90
8539;DHT22;4307;53.868;11.680;2022-12-10T04:17:39;0.20;99.90
8539;DHT22;4307;53.868;11.680;2022-12-10T04:20:06;0.10;99.90
8539;DHT22;4307;53.868;11.680;2022-12-10T04:22:56;0.10;99.90
8539;DHT22;4307;53.868;11.680;2022-12-10T04:25:40;0.00;99.90
8539;DHT22;4307;53.868;11.680;2022-12-10T04:28:24;-0.10;99.90
8539;DHT22;4307;53.868;11.680;2022-12-10T04:30:51;-0.20;99.90
8539;DHT22;4307;53.868;11.680;2022-12-10T04:33:18;-0.20;99.90
8539;DHT22;4307;53.868;11.680;2022-12-10T04:35:44;-0.20;99.90
8539;DHT22;4307;53.868;11.680;2022-12-10T04:38:12;-0.20;99.90
8539;DHT22;4307;53.868;11.680;2022-12-10T04:40:39;-0.20;99.90
8539;DHT22;4307;53.868;11.680;2022-12-10T04:43:05;-0.20;99.90
8539;DHT22;4307;53.868;11.680;2022-12-10T04:45:34;-0.10;99.90
8539;DHT22;4307;53.868;11.680;2022-12-10T04:48:01;-0.20;99.90
8539;DHT22;4307;53.868;11.680;2022-12-10T04:50:27;-0.20;99.90
8539;DHT22;4307;53.868;11.680;2022-12-10T04:52:54;-0.20;99.90
8539;DHT22;4307;53.868;11.680;2022-12-10T04:55:22;-0.20;99.90
8539;DHT22;4307;53.868;11.680;2022-12-10T04:57:48;-0.20;99.90
8539;DHT22;4307;53.868;11.680;2022-12-10T05:00:15;-0.10;99.90
8539;DHT22;4307;53.868;11.680;2022-12-10T05:02:42;-0.10;99.90
8539;DHT22;4307;53.868;11.680;2022-12-10T05:05:09;-0.10;99.90
8539;DHT22;4307;53.868;11.680;2022-12-10T05:07:35;-0.20;99.90
8539;DHT22;4307;53.868;11.680;2022-12-10T05:10:02;-0.30;99.90
8539;DHT22;4307;53.868;11.680;2022-12-10T05:12:31;-0.30;99.90
8539;DHT22;4307;53.868;11.680;2022-12-10T05:14:57;-0.50;99.90
8539;DHT22;4307;53.868;11.680;2022-12-10T05:17:25;-0.50;99.90
8539;DHT22;4307;53.868;11.680;2022-12-10T05:19:52;-0.60;99.90
8539;DHT22;4307;53.868;11.680;2022-12-10T05:22:18;-0.60;99.90
8539;DHT22;4307;53.868;11.680;2022-12-10T05:25:03;-0.60;99.90
8539;DHT22;4307;53.868;11.680;2022-12-10T05:27:32;-0.50;99.90
8539;DHT22;4307;53.868;11.680;2022-12-10T05:29:59;-0.50;99.90
8539;DHT22;4307;53.868;11.680;2022-12-10T05:32:25;-0.40;99.90
8539;DHT22;4307;53.868;11.680;2022-12-10T05:34:52;-0.30;99.90
8539;DHT22;4307;53.868;11.680;2022-12-10T05:37:19;-0.30;99.90
8539;DHT22;4307;53.868;11.680;2022-12-10T05:39:47;-0.20;99.90
8539;DHT22;4307;53.868;11.680;2022-12-10T05:42:13;-0.20;99.90
8539;DHT22;4307;53.868;11.680;2022-12-10T05:44:41;-0.10;99.90
8539;DHT22;4307;53.868;11.680;2022-12-10T05:47:08;-0.10;99.90
8539;DHT22;4307;53.868;11.680;2022-12-10T05:49:37;-0.10;99.90
8539;DHT22;4307;53.868;11.680;2022-12-10T05:52:04;-0.10;99.90
8539;DHT22;4307;53.868;11.680;2022-12-10T05:54:30;-0.20;99.90
8539;DHT22;4307;53.868;11.680;2022-12-10T05:56:57;-0.30;99.90
8539;DHT22;4307;53.868;11.680;2022-12-10T05:59:24;-0.40;99.90
8539;DHT22;4307;53.868;11.680;2022-12-10T06:01:52;-0.40;99.90
8539;DHT22;4307;53.868;11.680;2022-12-10T06:04:18;-0.50;99.90
8539;DHT22;4307;53.868;11.680;2022-12-10T06:06:45;-0.50;99.90
8539;DHT22;4307;53.868;11.680;2022-12-10T06:09:13;-0.40;99.90
8539;DHT22;4307;53.868;11.680;2022-12-10T06:11:40;-0.50;99.90
8539;DHT22;4307;53.868;11.680;2022-12-10T06:14:09;-0.50;99.90
8539;DHT22;4307;53.868;11.680;2022-12-10T06:16:36;-0.50;99.90
8539;DHT22;4307;53.868;11.680;2022-12-10T06:19:04;-0.60;99.90
8539;DHT22;4307;53.868;11.680;2022-12-10T06:21:30;-0.60;99.90
8539;DHT22;4307;53.868;11.680;2022-12-10T06:23:57;-0.60;99.90
8539;DHT22;4307;53.868;11.680;2022-12-10T06:26:25;-0.60;99.90
8539;DHT22;4307;53.868;11.680;2022-12-10T06:28:53;-0.60;99.90
8539;DHT22;4307;53.868;11.680;2022-12-10T06:31:20;-0.50;99.90
8539;DHT22;4307;53.868;11.680;2022-12-10T06:33:47;-0.50;99.90
8539;DHT22;4307;53.868;11.680;2022-12-10T06:36:16;-0.50;99.90
8539;DHT22;4307;53.868;11.680;2022-12-10T06:38:43;-0.50;99.90
8539;DHT22;4307;53.868;11.680;2022-12-10T06:41:11;-0.50;99.90
8539;DHT22;4307;53.868;11.680;2022-12-10T06:43:39;-0.50;99.90
8539;DHT22;4307;53.868;11.680;2022-12-10T06:46:06;-0.50;99.90
8539;DHT22;4307;53.868;11.680;2022-12-10T06:48:33;-0.50;99.90
8539;DHT22;4307;53.868;11.680;2022-12-10T06:51:01;-0.60;99.90
8539;DHT22;4307;53.868;11.680;2022-12-10T06:53:29;-0.50;99.90
8539;DHT22;4307;53.868;11.680;2022-12-10T06:55:58;-0.50;99.90
8539;DHT22;4307;53.868;11.680;2022-12-10T06:58:26;-0.50;99.90
8539;DHT22;4307;53.868;11.680;2022-12-10T07:00:52;-0.50;99.90
8539;DHT22;4307;53.868;11.680;2022-12-10T07:03:19;-0.60;99.90
8539;DHT22;4307;53.868;11.680;2022-12-10T07:05:45;-0.70;99.90
8539;DHT22;4307;53.868;11.680;2022-12-10T07:08:14;-0.70;99.90
8539;DHT22;4307;53.868;11.680;2022-12-10T07:10:44;-0.80;99.90
8539;DHT22;4307;53.868;11.680;2022-12-10T07:13:11;-0.80;99.90
8539;DHT22;4307;53.868;11.680;2022-12-10T07:15:37;-0.80;99.90
8539;DHT22;4307;53.868;11.680;2022-12-10T07:18:04;-0.80;99.90
8539;DHT22;4307;53.868;11.680;2022-12-10T07:20:31;-0.80;99.90
8539;DHT22;4307;53.868;11.680;2022-12-10T07:22:57;-0.70;99.90
8539;DHT22;4307;53.868;11.680;2022-12-10T07:25:24;-0.60;99.90
8539;DHT22;4307;53.868;11.680;2022-12-10T07:27:52;-0.60;99.90
8539;DHT22;4307;53.868;11.680;2022-12-10T07:30:18;-0.60;99.90
8539;DHT22;4307;53.868;11.680;2022-12-10T07:32:45;-0.60;99.90
8539;DHT22;4307;53.868;11.680;2022-12-10T07:35:12;-0.70;99.90
8539;DHT22;4307;53.868;11.680;2022-12-10T07:37:38;-0.80;99.90
8539;DHT22;4307;53.868;11.680;2022-12-10T07:40:06;-0.80;99.90
8539;DHT22;4307;53.868;11.680;2022-12-10T07:42:32;-0.80;99.90
8539;DHT22;4307;53.868;11.680;2022-12-10T07:45:00;-0.80;99.90
8539;DHT22;4307;53.868;11.680;2022-12-10T07:47:27;-0.80;99.90
8539;DHT22;4307;53.868;11.680;2022-12-10T07:49:54;-0.90;99.90
8539;DHT22;4307;53.868;11.680;2022-12-10T07:52:20;-0.90;99.90
8539;DHT22;4307;53.868;11.680;2022-12-10T07:54:47;-1.00;99.90
8539;DHT22;4307;53.868;11.680;2022-12-10T07:57:13;-1.00;99.90
8539;DHT22;4307;53.868;11.680;2022-12-10T07:59:40;-1.00;99.90
8539;DHT22;4307;53.868;11.680;2022-12-10T08:02:09;-1.00;99.90
8539;DHT22;4307;53.868;11.680;2022-12-10T08:04:36;-1.00;99.90
8539;DHT22;4307;53.868;11.680;2022-12-10T08:07:03;-1.00;99.90
8539;DHT22;4307;53.868;11.680;2022-12-10T08:09:29;-1.00;99.90
8539;DHT22;4307;53.868;11.680;2022-12-10T08:11:56;-0.90;99.90
8539;DHT22;4307;53.868;11.680;2022-12-10T08:14:23;-0.90;99.90
8539;DHT22;4307;53.868;11.680;2022-12-10T08:16:50;-0.90;99.90
8539;DHT22;4307;53.868;11.680;2022-12-10T08:19:18;-0.90;99.90
8539;DHT22;4307;53.868;11.680;2022-12-10T08:21:44;-0.90;99.90
8539;DHT22;4307;53.868;11.680;2022-12-10T08:24:11;-0.80;99.90
8539;DHT22;4307;53.868;11.680;2022-12-10T08:26:37;-0.80;99.90
8539;DHT22;4307;53.868;11.680;2022-12-10T08:29:04;-0.80;99.90
8539;DHT22;4307;53.868;11.680;2022-12-10T08:31:31;-0.80;99.90
8539;DHT22;4307;53.868;11.680;2022-12-10T08:33:58;-0.70;99.90
8539;DHT22;4307;53.868;11.680;2022-12-10T08:36:25;-0.60;99.90
8539;DHT22;4307;53.868;11.680;2022-12-10T08:38:52;-0.60;99.90
8539;DHT22;4307;53.868;11.680;2022-12-10T08:41:21;-0.50;99.90
8539;DHT22;4307;53.868;11.680;2022-12-10T08:43:50;-0.50;99.90
8539;DHT22;4307;53.868;11.680;2022-12-10T08:46:17;-0.40;99.90
8539;DHT22;4307;53.868;11.680;2022-12-10T08:48:44;-0.40;99.90
8539;DHT22;4307;53.868;11.680;2022-12-10T08:51:14;-0.40;99.90
8539;DHT22;4307;53.868;11.680;2022-12-10T08:53:42;-0.40;99.90
8539;DHT22;4307;53.868;11.680;2022-12-10T08:56:10;-0.40;99.90
8539;DHT22;4307;53.868;11.680;2022-12-10T08:58:37;-0.40;99.90
8539;DHT22;4307;53.868;11.680;2022-12-10T09:01:06;-0.40;99.90
8539;DHT22;4307;53.868;11.680;2022-12-10T09:03:34;-0.40;99.90
8539;DHT22;4307;53.868;11.680;2022-12-10T09:06:04;-0.40;99.90
8539;DHT22;4307;53.868;11.680;2022-12-10T09:08:32;-0.40;99.90
8539;DHT22;4307;53.868;11.680;2022-12-10T09:11:04;-0.40;99.90
8539;DHT22;4307;53.868;11.680;2022-12-10T09:13:31;-0.40;99.90
8539;DHT22;4307;53.868;11.680;2022-12-10T09:15:57;-0.30;99.90
8539;DHT22;4307;53.868;11.680;2022-12-10T09:18:24;-0.30;99.90
8539;DHT22;4307;53.868;11.680;2022-12-10T09:20:52;-0.30;99.90
8539;DHT22;4307;53.868;11.680;2022-12-10T09:23:18;-0.30;99.90
8539;DHT22;4307;53.868;11.680;2022-12-10T09:25:45;-0.30;99.90
8539;DHT22;4307;53.868;11.680;2022-12-10T09:28:13;-0.30;99.90
8539;DHT22;4307;53.868;11.680;2022-12-10T09:30:40;-0.20;99.90
8539;DHT22;4307;53.868;11.680;2022-12-10T09:33:07;-0.20;99.90
8539;DHT22;4307;53.868;11.680;2022-12-10T09:35:33;-0.10;99.90
8539;DHT22;4307;53.868;11.680;2022-12-10T09:38:00;-0.10;99.90
8539;DHT22;4307;53.868;11.680;2022-12-10T09:40:38;-0.10;99.90
8539;DHT22;4307;53.868;11.680;2022-12-10T09:43:13;-0.10;99.90
8539;DHT22;4307;53.868;11.680;2022-12-10T09:45:49;0.00;99.90
8539;DHT22;4307;53.868;11.680;2022-12-10T09:48:20;0.00;99.90
8539;DHT22;4307;53.868;11.680;2022-12-10T09:50:57;0.00;99.90
8539;DHT22;4307;53.868;11.680;2022-12-10T09:53:29;0.10;99.90
8539;DHT22;4307;53.868;11.680;2022-12-10T09:55:58;0.10;99.90
8539;DHT22;4307;53.868;11.680;2022-12-10T09:58:27;0.10;99.90
8539;DHT22;4307;53.868;11.680;2022-12-10T10:00:57;0.10;99.90
8539;DHT22;4307;53.868;11.680;2022-12-10T10:03:24;0.10;99.90
8539;DHT22;4307;53.868;11.680;2022-12-10T10:05:52;0.10;99.90
8539;DHT22;4307;53.868;11.680;2022-12-10T10:08:27;0.10;99.90
8539;DHT22;4307;53.868;11.680;2022-12-10T10:10:55;0.10;99.90
8539;DHT22;4307;53.868;11.680;2022-12-10T10:13:30;0.10;99.90
8539;DHT22;4307;53.868;11.680;2022-12-10T10:16:09;0.10;99.90
8539;DHT22;4307;53.868;11.680;2022-12-10T10:18:42;0.10;99.90
8539;DHT22;4307;53.868;11.680;2022-12-10T10:21:16;0.00;99.90
8539;DHT22;4307;53.868;11.680;2022-12-10T10:23:45;0.00;99.90
8539;DHT22;4307;53.868;11.680;2022-12-10T10:26:12;0.00;99.90
8539;DHT22;4307;53.868;11.680;2022-12-10T10:28:41;-0.10;99.90
8539;DHT22;4307;53.868;11.680;2022-12-10T10:31:17;-0.20;99.90
8539;DHT22;4307;53.868;11.680;2022-12-10T10:33:48;-0.30;99.90
8539;DHT22;4307;53.868;11.680;2022-12-10T10:36:15;-0.30;99.90
8539;DHT22;4307;53.868;11.680;2022-12-10T10:38:47;-0.30;99.90
8539;DHT22;4307;53.868;11.680;2022-12-10T10:41:14;-0.20;99.90
8539;DHT22;4307;53.868;11.680;2022-12-10T10:43:43;-0.10;99.90
8539;DHT22;4307;53.868;11.680;2022-12-10T10:46:12;0.00;99.90
8539;DHT22;4307;53.868;11.680;2022-12-10T10:48:39;0.00;99.90
8539;DHT22;4307;53.868;11.680;2022-12-10T10:51:08;0.00;99.90
8539;DHT22;4307;53.868;11.680;2022-12-10T10:53:43;0.10;99.90
8539;DHT22;4307;53.868;11.680;2022-12-10T10:56:12;0.10;99.90
8539;DHT22;4307;53.868;11.680;2022-12-10T10:58:52;0.10;99.90
8539;DHT22;4307;53.868;11.680;2022-12-10T11:01:19;0.10;99.90
8539;DHT22;4307;53.868;11.680;2022-12-10T11:03:49;0.20;99.90
8539;DHT22;4307;53.868;11.680;2022-12-10T11:06:17;0.20;99.90
8539;DHT22;4307;53.868;11.680;2022-12-10T11:08:45;0.10;99.90
8539;DHT22;4307;53.868;11.680;2022-12-10T11:11:16;0.10;99.90
8539;DHT22;4307;53.868;11.680;2022-12-10T11:13:44;0.10;99.90
8539;DHT22;4307;53.868;11.680;2022-12-10T11:16:18;0.10;99.90
8539;DHT22;4307;53.868;11.680;2022-12-10T11:18:54;0.00;99.90
8539;DHT22;4307;53.868;11.680;2022-12-10T11:21:21;0.00;99.90
8539;DHT22;4307;53.868;11.680;2022-12-10T11:23:52;0.00;99.90
8539;DHT22;4307;53.868;11.680;2022-12-10T11:26:29;0.00;99.90
8539;DHT22;4307;53.868;11.680;2022-12-10T11:29:10;0.00;99.90
8539;DHT22;4307;53.868;11.680;2022-12-10T11:31:54;0.00;99.90
8539;DHT22;4307;53.868;11.680;2022-12-10T11:34:33;0.00;99.90
8539;DHT22;4307;53.868;11.680;2022-12-10T11:37:09;0.00;99.90
8539;DHT22;4307;53.868;11.680;2022-12-10T11:39:54;0.00;99.90
8539;DHT22;4307;53.868;11.680;2022-12-10T11:42:29;0.10;99.90
8539;DHT22;4307;53.868;11.680;2022-12-10T11:45:06;0.10;99.90
8539;DHT22;4307;53.868;11.680;2022-12-10T11:47:44;0.20;99.90
8539;DHT22;4307;53.868;11.680;2022-12-10T11:50:25;0.20;99.90
8539;DHT22;4307;53.868;11.680;2022-12-10T11:53:07;0.20;99.90
8539;DHT22;4307;53.868;11.680;2022-12-10T11:55:48;0.30;99.90
8539;DHT22;4307;53.868;11.680;2022-12-10T11:58:33;0.30;99.90
8539;DHT22;4307;53.868;11.680;2022-12-10T12:01:09;0.30;99.90
8539;DHT22;4307;53.868;11.680;2022-12-10T12:03:55;0.30;99.90
8539;DHT22;4307;53.868;11.680;2022-12-10T12:06:40;0.30;99.90
8539;DHT22;4307;53.868;11.680;2022-12-10T12:09:17;0.30;99.90
8539;DHT22;4307;53.868;11.680;2022-12-10T12:11:55;0.30;99.90
8539;DHT22;4307;53.868;11.680;2022-12-10T12:14:27;0.30;99.90
8539;DHT22;4307;53.868;11.680;2022-12-10T12:17:02;0.20;99.90
8539;DHT22;4307;53.868;11.680;2022-12-10T12:19:34;0.20;99.90
8539;DHT22;4307;53.868;11.680;2022-12-10T12:22:08;0.10;99.90
8539;DHT22;4307;53.868;11.680;2022-12-10T12:24:38;0.10;99.90
8539;DHT22;4307;53.868;11.680;2022-12-10T12:27:11;0.10;99.90
8539;DHT22;4307;53.868;11.680;2022-12-10T12:29:43;0.10;99.90
8539;DHT22;4307;53.868;11.680;2022-12-10T12:32:17;0.10;99.90
8539;DHT22;4307;53.868;11.680;2022-12-10T12:34:51;0.00;99.90
8539;DHT22;4307;53.868;11.680;2022-12-10T12:37:22;-0.10;99.90
8539;DHT22;4307;53.868;11.680;2022-12-10T12:39:57;-0.10;99.90
8539;DHT22;4307;53.868;11.680;2022-12-10T12:42:29;-0.10;99.90
8539;DHT22;4307;53.868;11.680;2022-12-10T12:45:02;-0.10;99.90
8539;DHT22;4307;53.868;11.680;2022-12-10T12:47:36;-0.10;99.90
8539;DHT22;4307;53.868;11.680;2022-12-10T12:50:15;-0.10;99.90
8539;DHT22;4307;53.868;11.680;2022-12-10T12:52:48;-0.10;99.90
8539;DHT22;4307;53.868;11.680;2022-12-10T12:55:21;-0.10;99.90
8539;DHT22;4307;53.868;11.680;2022-12-10T12:57:56;-0.10;99.90
8539;DHT22;4307;53.868;11.680;2022-12-10T13:00:29;-0.10;99.90
8539;DHT22;4307;53.868;11.680;2022-12-10T13:03:08;-0.10;99.90
8539;DHT22;4307;53.868;11.680;2022-12-10T13:05:43;-0.10;99.90
8539;DHT22;4307;53.868;11.680;2022-12-10T13:08:31;-0.20;99.90
8539;DHT22;4307;53.868;11.680;2022-12-10T13:11:00;-0.20;99.90
8539;DHT22;4307;53.868;11.680;2022-12-10T13:14:01;-0.20;99.90
8539;DHT22;4307;53.868;11.680;2022-12-10T13:16:35;-0.10;99.90
8539;DHT22;4307;53.868;11.680;2022-12-10T13:19:25;-0.10;99.90
8539;DHT22;4307;53.868;11.680;2022-12-10T13:22:04;0.00;99.90
8539;DHT22;4307;53.868;11.680;2022-12-10T13:24:47;0.00;99.90
8539;DHT22;4307;53.868;11.680;2022-12-10T13:27:29;0.00;99.90
8539;DHT22;4307;53.868;11.680;2022-12-10T13:29:58;0.00;99.90
8539;DHT22;4307;53.868;11.680;2022-12-10T13:32:43;0.00;99.90
8539;DHT22;4307;53.868;11.680;2022-12-10T13:35:27;0.10;99.90
8539;DHT22;4307;53.868;11.680;2022-12-10T13:38:02;0.00;99.90
8539;DHT22;4307;53.868;11.680;2022-12-10T13:40:38;0.00;99.90
8539;DHT22;4307;53.868;11.680;2022-12-10T13:43:27;0.00;99.90
8539;DHT22;4307;53.868;11.680;2022-12-10T13:46:26;0.00;99.90
8539;DHT22;4307;53.868;11.680;2022-12-10T13:48:53;-0.10;99.90
8539;DHT22;4307;53.868;11.680;2022-12-10T13:51:33;-0.10;99.90
8539;DHT22;4307;53.868;11.680;2022-12-10T13:54:25;-0.10;99.90
8539;DHT22;4307;53.868;11.680;2022-12-10T13:57:02;-0.10;99.90
8539;DHT22;4307;53.868;11.680;2022-12-10T13:59:39;-0.10;99.90
8539;DHT22;4307;53.868;11.680;2022-12-10T14:02:28;-0.10;99.90
8539;DHT22;4307;53.868;11.680;2022-12-10T14:05:36;-0.10;99.90
8539;DHT22;4307;53.868;11.680;2022-12-10T14:08:13;-0.10;99.90
8539;DHT22;4307;53.868;11.680;2022-12-10T14:10:42;-0.10;99.90
8539;DHT22;4307;53.868;11.680;2022-12-10T14:13:12;-0.20;99.90
8539;DHT22;4307;53.868;11.680;2022-12-10T14:15:40;-0.20;99.90
8539;DHT22;4307;53.868;11.680;2022-12-10T14:18:11;-0.20;99.90
8539;DHT22;4307;53.868;11.680;2022-12-10T14:20:44;-0.20;99.90
8539;DHT22;4307;53.868;11.680;2022-12-10T14:23:22;-0.10;99.90
8539;DHT22;4307;53.868;11.680;2022-12-10T14:26:12;-0.10;99.90
8539;DHT22;4307;53.868;11.680;2022-12-10T14:28:41;-0.10;99.90
8539;DHT22;4307;53.868;11.680;2022-12-10T14:31:13;-0.10;99.90
8539;DHT22;4307;53.868;11.680;2022-12-10T14:33:43;-0.10;99.90
8539;DHT22;4307;53.868;11.680;2022-12-10T14:36:17;-0.10;99.90
8539;DHT22;4307;53.868;11.680;2022-12-10T14:38:46;-0.20;99.90
8539;DHT22;4307;53.868;11.680;2022-12-10T14:41:17;-0.30;99.90
8539;DHT22;4307;53.868;11.680;2022-12-10T14:43:46;-0.40;99.90
8539;DHT22;4307;53.868;11.680;2022-12-10T14:46:14;-0.40;99.90
8539;DHT22;4307;53.868;11.680;2022-12-10T14:48:43;-0.40;99.90
8539;DHT22;4307;53.868;11.680;2022-12-10T14:51:14;-0.40;99.90
8539;DHT22;4307;53.868;11.680;2022-12-10T14:53:41;-0.50;99.90
8539;DHT22;4307;53.868;11.680;2022-12-10T14:56:13;-0.40;99.90
8539;DHT22;4307;53.868;11.680;2022-12-10T14:58:45;-0.40;99.90
8539;DHT22;4307;53.868;11.680;2022-12-10T15:01:21;-0.40;99.90
8539;DHT22;4307;53.868;11.680;2022-12-10T15:03:48;-0.40;99.90
8539;DHT22;4307;53.868;11.680;2022-12-10T15:06:16;-0.40;99.90
8539;DHT22;4307;53.868;11.680;2022-12-10T15:08:45;-0.50;99.90
8539;DHT22;4307;53.868;11.680;2022-12-10T15:11:16;-0.50;99.90
8539;DHT22;4307;53.868;11.680;2022-12-10T15:13:46;-0.60;99.90
8539;DHT22;4307;53.868;11.680;2022-12-10T15:16:17;-0.60;99.90
8539;DHT22;4307;53.868;11.680;2022-12-10T15:18:44;-0.60;99.90
8539;DHT22;4307;53.868;11.680;2022-12-10T15:21:14;-0.60;99.90
8539;DHT22;4307;53.868;11.680;2022-12-10T15:23:43;-0.60;99.90
8539;DHT22;4307;53.868;11.680;2022-12-10T15:26:19;-0.60;99.90
8539;DHT22;4307;53.868;11.680;2022-12-10T15:28:49;-0.60;99.90
8539;DHT22;4307;53.868;11.680;2022-12-10T15:31:21;-0.70;99.90
8539;DHT22;4307;53.868;11.680;2022-12-10T15:33:50;-0.70;99.90
8539;DHT22;4307;53.868;11.680;2022-12-10T15:36:22;-0.80;99.90
8539;DHT22;4307;53.868;11.680;2022-12-10T15:38:50;-0.80;99.90
8539;DHT22;4307;53.868;11.680;2022-12-10T15:41:41;-0.80;99.90
8539;DHT22;4307;53.868;11.680;2022-12-10T15:44:19;-0.80;99.90
8539;DHT22;4307;53.868;11.680;2022-12-10T15:46:50;-0.70;99.90
8539;DHT22;4307;53.868;11.680;2022-12-10T15:49:17;-0.70;99.90
8539;DHT22;4307;53.868;11.680;2022-12-10T15:51:44;-0.60;99.90
8539;DHT22;4307;53.868;11.680;2022-12-10T15:54:21;-0.60;99.90
8539;DHT22;4307;53.868;11.680;2022-12-10T15:56:48;-0.60;99.90
8539;DHT22;4307;53.868;11.680;2022-12-10T15:59:15;-0.60;99.90
8539;DHT22;4307;53.868;11.680;2022-12-10T16:01:43;-0.50;99.90
8539;DHT22;4307;53.868;11.680;2022-12-10T16:04:11;-0.50;99.90
8539;DHT22;4307;53.868;11.680;2022-12-10T16:06:39;-0.50;99.90
8539;DHT22;4307;53.868;11.680;2022-12-10T16:09:06;-0.50;99.90
8539;DHT22;4307;53.868;11.680;2022-12-10T16:11:33;-0.50;99.90
8539;DHT22;4307;53.868;11.680;2022-12-10T16:14:00;-0.50;99.90
8539;DHT22;4307;53.868;11.680;2022-12-10T16:16:27;-0.50;99.90